createdAt,value
2023-05-06T00:01:37.944Z,9.23
2023-05-06T00:04:05.427Z,9.77
2023-05-06T00:06:33.483Z,9.52
2023-05-06T00:09:00.706Z,9.50
2023-05-06T00:11:29.302Z,8.65
2023-05-06T00:13:56.258Z,9.40
2023-05-06T00:16:23.303Z,10.85
2023-05-06T00:18:50.765Z,9.68
2023-05-06T00:21:17.757Z,9.55
2023-05-06T00:23:44.810Z,9.20
2023-05-06T00:26:11.840Z,9.88
2023-05-06T00:28:40.172Z,8.63
2023-05-06T00:31:07.223Z,9.68
2023-05-06T00:33:34.151Z,8.90
2023-05-06T00:36:01.188Z,9.18
2023-05-06T00:38:28.112Z,8.70
2023-05-06T00:40:55.319Z,8.85
2023-05-06T00:43:22.285Z,8.77
2023-05-06T00:45:51.644Z,8.50
2023-05-06T00:48:18.876Z,9.05
2023-05-06T00:50:46.063Z,9.45
2023-05-06T00:53:13.115Z,9.20
2023-05-06T00:55:40.397Z,9.30
2023-05-06T00:58:08.465Z,9.25
2023-05-06T01:00:35.689Z,9.25
2023-05-06T01:03:04.254Z,9.25
2023-05-06T01:05:40.097Z,8.90
2023-05-06T01:08:14.855Z,8.63
2023-05-06T01:10:47.460Z,9.10
2023-05-06T01:13:21.489Z,8.82
2023-05-06T01:15:53.301Z,8.38
2023-05-06T01:18:23.084Z,8.57
2023-05-06T01:20:53.482Z,8.85
2023-05-06T01:23:21.839Z,8.98
2023-05-06T01:25:48.859Z,8.52
2023-05-06T01:28:17.107Z,8.60
2023-05-06T01:30:53.086Z,9.02
2023-05-06T01:33:28.110Z,9.32
2023-05-06T01:36:02.520Z,8.93
2023-05-06T01:38:37.968Z,8.75
2023-05-06T01:41:05.485Z,8.80
2023-05-06T01:43:38.775Z,8.98
2023-05-06T01:46:09.456Z,8.10
2023-05-06T01:48:37.640Z,8.13
2023-05-06T01:51:04.849Z,8.32
2023-05-06T01:53:36.247Z,8.23
2023-05-06T01:56:03.287Z,8.75
2023-05-06T01:58:30.326Z,7.82
2023-05-06T02:00:57.266Z,8.23
2023-05-06T02:03:24.321Z,8.43
2023-05-06T02:05:51.765Z,8.25
2023-05-06T02:08:20.335Z,6.88
2023-05-06T02:10:48.732Z,7.85
2023-05-06T02:13:18.616Z,7.38
2023-05-06T02:15:46.503Z,7.88
2023-05-06T02:18:17.354Z,7.53
2023-05-06T02:20:44.245Z,7.68
2023-05-06T02:23:16.280Z,8.20
2023-05-06T02:25:43.558Z,8.70
2023-05-06T02:28:11.901Z,7.97
2023-05-06T02:30:39.062Z,8.50
2023-05-06T02:33:06.236Z,8.90
2023-05-06T02:35:33.225Z,8.63
2023-05-06T02:38:01.633Z,8.50
2023-05-06T02:40:28.591Z,8.55
2023-05-06T02:42:55.626Z,8.70
2023-05-06T02:45:24.050Z,8.57
2023-05-06T02:47:51.177Z,9.70
2023-05-06T02:50:18.385Z,9.18
2023-05-06T02:52:45.304Z,9.15
2023-05-06T02:55:12.322Z,8.63
2023-05-06T02:57:39.264Z,9.30
2023-05-06T03:00:07.653Z,8.50
2023-05-06T03:02:36.110Z,8.63
2023-05-06T03:05:04.553Z,8.77
2023-05-06T03:07:32.428Z,8.23
2023-05-06T03:09:59.893Z,9.70
2023-05-06T03:12:26.900Z,8.98
2023-05-06T03:14:53.809Z,8.90
2023-05-06T03:17:21.700Z,9.50
2023-05-06T03:19:51.042Z,9.35
2023-05-06T03:22:18.866Z,9.32
2023-05-06T03:24:46.396Z,9.30
2023-05-06T03:27:13.361Z,9.88
2023-05-06T03:29:41.716Z,10.43
2023-05-06T03:32:10.758Z,9.38
2023-05-06T03:34:42.147Z,8.80
2023-05-06T03:37:13.884Z,9.02
2023-05-06T03:39:48.221Z,10.45
2023-05-06T03:42:16.244Z,10.30
2023-05-06T03:44:44.629Z,10.27
2023-05-06T03:47:11.692Z,10.55
2023-05-06T03:49:38.678Z,10.45
2023-05-06T03:52:06.162Z,12.10
2023-05-06T03:54:34.665Z,11.30
2023-05-06T03:57:02.608Z,11.40
2023-05-06T03:59:30.855Z,10.50
2023-05-06T04:01:58.329Z,11.20
2023-05-06T04:04:27.357Z,11.98
2023-05-06T04:06:54.463Z,12.05
2023-05-06T04:09:21.540Z,12.20
2023-05-06T04:11:51.380Z,11.90
2023-05-06T04:14:18.999Z,11.60
2023-05-06T04:16:46.444Z,11.88
2023-05-06T04:19:14.084Z,12.35
2023-05-06T04:21:40.989Z,13.10
2023-05-06T04:24:11.631Z,13.77
2023-05-06T04:26:39.886Z,13.10
2023-05-06T04:29:09.069Z,13.15
2023-05-06T04:31:43.136Z,13.40
2023-05-06T04:34:12.410Z,12.65
2023-05-06T04:36:40.683Z,13.45
2023-05-06T04:39:32.971Z,13.57
2023-05-06T04:41:59.993Z,13.73
2023-05-06T04:44:36.566Z,13.60
2023-05-06T04:47:08.342Z,11.75
2023-05-06T04:49:35.779Z,13.48
2023-05-06T04:52:04.633Z,12.98
2023-05-06T04:54:32.443Z,12.18
2023-05-06T04:56:59.394Z,12.02
2023-05-06T04:59:27.172Z,11.77
2023-05-06T05:01:55.629Z,12.52
2023-05-06T05:04:22.644Z,12.18
2023-05-06T05:06:49.628Z,12.13
2023-05-06T05:09:17.030Z,12.63
2023-05-06T05:11:46.286Z,11.30
2023-05-06T05:14:13.902Z,11.82
2023-05-06T05:16:40.980Z,12.88
2023-05-06T05:19:09.723Z,11.75
2023-05-06T05:21:37.075Z,10.60
2023-05-06T05:24:06.437Z,11.55
2023-05-06T05:26:36.771Z,12.10
2023-05-06T05:29:03.866Z,11.70
2023-05-06T05:31:32.284Z,11.30
2023-05-06T05:34:00.293Z,11.07
2023-05-06T05:36:29.342Z,10.82
2023-05-06T05:38:58.727Z,10.93
2023-05-06T05:41:27.713Z,10.65
2023-05-06T05:43:58.461Z,10.98
2023-05-06T05:46:27.266Z,10.88
2023-05-06T05:48:56.056Z,10.32
2023-05-06T05:51:23.984Z,10.73
2023-05-06T05:53:53.371Z,9.68
2023-05-06T05:56:22.982Z,10.68
2023-05-06T05:58:49.894Z,9.80
2023-05-06T06:01:17.567Z,10.10
2023-05-06T06:03:44.909Z,9.90
2023-05-06T06:06:12.079Z,9.00
2023-05-06T06:08:39.658Z,9.52
2023-05-06T06:11:08.598Z,8.80
2023-05-06T06:13:40.023Z,8.75
2023-05-06T06:16:08.292Z,9.50
2023-05-06T06:18:35.637Z,9.13
2023-05-06T06:21:03.235Z,9.23
2023-05-06T06:23:30.441Z,8.77
2023-05-06T06:26:01.833Z,8.63
2023-05-06T06:28:30.189Z,9.57
2023-05-06T06:30:57.235Z,8.65
2023-05-06T06:33:24.127Z,8.15
2023-05-06T06:35:51.282Z,8.68
2023-05-06T06:38:18.454Z,8.45
2023-05-06T06:40:45.875Z,8.23
2023-05-06T06:43:12.796Z,7.20
2023-05-06T06:46:00.857Z,7.47
2023-05-06T06:48:27.868Z,7.65
2023-05-06T06:50:54.764Z,7.80
2023-05-06T06:53:22.041Z,7.00
2023-05-06T06:55:48.978Z,7.78
2023-05-06T06:58:16.312Z,7.28
2023-05-06T07:00:43.892Z,8.00
2023-05-06T07:03:15.544Z,7.30
2023-05-06T07:05:42.766Z,6.97
2023-05-06T07:08:09.730Z,6.95
2023-05-06T07:10:36.916Z,5.85
2023-05-06T07:13:04.059Z,5.70
2023-05-06T07:15:31.026Z,4.88
2023-05-06T07:17:58.017Z,5.30
2023-05-06T07:20:26.440Z,4.70
2023-05-06T07:22:53.353Z,4.93
2023-05-06T07:25:20.358Z,5.10
2023-05-06T07:27:49.266Z,4.38
2023-05-06T07:30:16.421Z,5.38
2023-05-06T07:32:43.630Z,5.07
2023-05-06T07:35:10.860Z,4.70
2023-05-06T07:37:39.980Z,4.20
2023-05-06T07:40:08.527Z,4.43
2023-05-06T07:42:35.496Z,4.32
2023-05-06T07:45:02.572Z,4.22
2023-05-06T07:47:31.674Z,4.30
2023-05-06T07:49:59.906Z,3.85
2023-05-06T07:52:27.710Z,3.55
2023-05-06T07:54:56.080Z,3.58
2023-05-06T07:57:23.061Z,3.13
2023-05-06T07:59:51.235Z,3.30
2023-05-06T08:02:18.768Z,2.90
2023-05-06T08:04:46.529Z,3.17
2023-05-06T08:07:14.882Z,4.15
2023-05-06T08:09:41.822Z,3.42
2023-05-06T08:12:10.258Z,3.25
2023-05-06T08:14:37.288Z,3.20
2023-05-06T08:17:04.408Z,3.20
2023-05-06T08:19:31.392Z,3.17
2023-05-06T08:21:58.374Z,3.00
2023-05-06T08:24:25.705Z,3.60
2023-05-06T08:26:53.143Z,2.90
2023-05-06T08:29:21.662Z,3.25
2023-05-06T08:31:48.776Z,2.78
2023-05-06T08:34:18.556Z,3.47
2023-05-06T08:36:45.667Z,3.28
2023-05-06T08:39:14.562Z,2.92
2023-05-06T08:41:44.838Z,2.75
2023-05-06T08:44:16.085Z,3.03
2023-05-06T08:46:44.476Z,2.67
2023-05-06T08:49:11.474Z,3.20
2023-05-06T08:51:38.539Z,3.00
2023-05-06T08:54:06.438Z,3.10
2023-05-06T08:56:34.037Z,3.13
2023-05-06T08:59:01.470Z,2.70
2023-05-06T09:01:28.901Z,3.10
2023-05-06T09:03:59.308Z,2.78
2023-05-06T09:06:27.173Z,2.78
2023-05-06T09:08:54.525Z,3.08
2023-05-06T09:11:23.156Z,2.80
2023-05-06T09:13:51.164Z,3.00
2023-05-06T09:16:36.214Z,3.05
2023-05-06T09:19:04.897Z,3.28
2023-05-06T09:21:35.265Z,3.05
2023-05-06T09:24:03.087Z,2.90
2023-05-06T09:26:30.585Z,3.17
2023-05-06T09:28:58.458Z,2.50
2023-05-06T09:31:26.008Z,2.92
2023-05-06T09:33:53.628Z,2.40
2023-05-06T09:36:22.475Z,2.40
2023-05-06T09:38:49.723Z,2.63
2023-05-06T09:41:21.061Z,2.58
2023-05-06T09:43:49.324Z,2.83
2023-05-06T09:46:17.231Z,2.63
2023-05-06T09:48:45.379Z,2.58
2023-05-06T09:51:12.943Z,2.47
2023-05-06T09:53:42.791Z,2.97
2023-05-06T09:56:10.002Z,2.65
2023-05-06T09:58:37.323Z,2.88
2023-05-06T10:01:09.405Z,2.75
2023-05-06T10:03:36.808Z,2.58
2023-05-06T10:06:06.251Z,2.20
2023-05-06T10:08:35.041Z,2.70
2023-05-06T10:11:05.405Z,2.55
2023-05-06T10:13:32.890Z,3.33
2023-05-06T10:16:02.799Z,3.20
2023-05-06T10:18:30.840Z,2.22
2023-05-06T10:21:00.171Z,2.30
2023-05-06T10:23:36.022Z,2.22
2023-05-06T10:26:08.096Z,2.75
2023-05-06T10:28:39.320Z,3.10
2023-05-06T10:31:10.964Z,2.95
2023-05-06T10:33:38.627Z,2.60
2023-05-06T10:36:20.549Z,2.80
2023-05-06T10:38:54.724Z,2.60
2023-05-06T10:41:26.082Z,2.40
2023-05-06T10:43:57.081Z,2.63
2023-05-06T10:46:26.233Z,3.05
2023-05-06T10:49:18.401Z,2.85
2023-05-06T10:52:11.609Z,2.90
2023-05-06T10:54:49.353Z,3.30
2023-05-06T10:57:18.025Z,2.65
2023-05-06T10:59:46.666Z,2.72
2023-05-06T11:02:14.714Z,2.75
2023-05-06T11:04:41.996Z,2.55
2023-05-06T11:07:11.249Z,2.40
2023-05-06T11:09:55.388Z,2.90
2023-05-06T11:12:45.037Z,2.50
2023-05-06T11:15:25.270Z,2.95
2023-05-06T11:17:53.893Z,2.20
2023-05-06T11:20:22.290Z,2.45
2023-05-06T11:22:49.571Z,2.90
2023-05-06T11:25:41.215Z,2.78
2023-05-06T11:28:11.094Z,2.88
2023-05-06T11:30:41.670Z,2.50
2023-05-06T11:33:13.772Z,2.30
2023-05-06T11:35:41.278Z,2.60
2023-05-06T11:38:08.259Z,2.13
2023-05-06T11:40:35.466Z,2.45
2023-05-06T11:43:14.261Z,2.67
2023-05-06T11:45:43.824Z,2.63
2023-05-06T11:48:14.139Z,2.65
2023-05-06T11:50:45.514Z,2.53
2023-05-06T11:53:13.019Z,2.30
2023-05-06T11:55:40.177Z,2.60
2023-05-06T11:58:12.172Z,2.75
2023-05-06T12:00:49.699Z,2.47
2023-05-06T12:03:18.352Z,2.30
2023-05-06T12:05:47.985Z,2.35
2023-05-06T12:08:26.535Z,2.72
2023-05-06T12:10:56.449Z,2.53
2023-05-06T12:13:23.643Z,2.63
2023-05-06T12:15:54.605Z,3.00
2023-05-06T12:18:22.295Z,2.80
2023-05-06T12:20:49.310Z,2.65
2023-05-06T12:23:17.076Z,2.92
2023-05-06T12:25:49.270Z,2.80
2023-05-06T12:28:17.596Z,3.47
2023-05-06T12:30:45.110Z,3.15
2023-05-06T12:33:13.603Z,2.38
2023-05-06T12:35:41.470Z,2.35
2023-05-06T12:38:09.562Z,2.50
2023-05-06T12:40:36.832Z,2.33
2023-05-06T12:43:03.896Z,3.42
2023-05-06T12:45:31.221Z,3.40
2023-05-06T12:47:59.253Z,2.50
2023-05-06T12:50:36.417Z,2.50
2023-05-06T12:53:03.947Z,2.53
2023-05-06T12:55:31.503Z,2.33
2023-05-06T12:57:58.528Z,2.35
2023-05-06T13:00:25.657Z,2.25
2023-05-06T13:02:55.060Z,2.47
2023-05-06T13:05:22.322Z,2.10
2023-05-06T13:07:51.293Z,2.22
2023-05-06T13:10:18.244Z,2.30
2023-05-06T13:12:45.489Z,2.35
2023-05-06T13:15:12.482Z,2.25
2023-05-06T13:17:39.514Z,1.90
2023-05-06T13:20:07.830Z,1.90
2023-05-06T13:22:47.025Z,2.35
2023-05-06T13:25:22.298Z,2.05
2023-05-06T13:27:49.282Z,2.22
2023-05-06T13:30:17.206Z,2.65
2023-05-06T13:32:46.868Z,2.50
2023-05-06T13:35:13.886Z,2.70
2023-05-06T13:37:40.990Z,2.55
2023-05-06T13:40:09.723Z,3.83
2023-05-06T13:42:38.840Z,11.30
2023-05-06T13:45:07.363Z,7.47
2023-05-06T13:47:34.295Z,6.18
2023-05-06T13:50:03.725Z,5.68
2023-05-06T13:52:30.708Z,3.38
2023-05-06T13:54:58.382Z,2.30
2023-05-06T13:57:26.023Z,2.60
2023-05-06T13:59:54.353Z,4.50
2023-05-06T14:02:21.406Z,4.68
2023-05-06T14:04:48.459Z,5.07
2023-05-06T14:07:15.747Z,4.88
2023-05-06T14:09:42.656Z,5.75
2023-05-06T14:12:09.622Z,6.20
2023-05-06T14:14:36.538Z,7.15
2023-05-06T14:17:04.830Z,7.90
2023-05-06T14:19:31.806Z,7.45
2023-05-06T14:21:58.764Z,4.55
2023-05-06T14:24:25.691Z,4.78
2023-05-06T14:26:53.812Z,4.38
2023-05-06T14:29:20.904Z,4.22
2023-05-06T14:31:48.044Z,5.10
2023-05-06T14:34:16.399Z,2.50
2023-05-06T14:36:43.797Z,2.67
2023-05-06T14:39:10.816Z,2.50
2023-05-06T14:41:37.711Z,2.65
2023-05-06T14:44:05.162Z,2.10
2023-05-06T14:46:32.169Z,3.03
2023-05-06T14:48:59.204Z,2.78
2023-05-06T14:51:28.543Z,2.40
2023-05-06T14:53:56.302Z,4.18
2023-05-06T14:56:23.229Z,4.18
2023-05-06T14:58:50.389Z,2.30
2023-05-06T15:01:20.845Z,2.38
2023-05-06T15:03:47.868Z,2.30
2023-05-06T15:06:14.856Z,2.38
2023-05-06T15:08:43.246Z,2.63
2023-05-06T15:11:10.172Z,2.72
2023-05-06T15:13:37.087Z,2.63
2023-05-06T15:16:04.798Z,2.33
2023-05-06T15:18:31.802Z,3.08
2023-05-06T15:21:01.418Z,2.40
2023-05-06T15:23:28.509Z,3.33
2023-05-06T15:25:58.229Z,4.00
2023-05-06T15:28:25.386Z,2.92
2023-05-06T15:30:52.338Z,2.50
2023-05-06T15:33:19.338Z,4.53
2023-05-06T15:35:46.324Z,3.35
2023-05-06T15:38:13.253Z,3.35
2023-05-06T15:40:40.742Z,3.30
2023-05-06T15:43:09.074Z,3.42
2023-05-06T15:45:36.217Z,2.70
2023-05-06T15:48:03.357Z,2.35
2023-05-06T15:50:33.937Z,2.88
2023-05-06T15:53:02.273Z,2.55
2023-05-06T15:55:29.949Z,2.70
2023-05-06T15:57:58.480Z,2.75
2023-05-06T16:00:28.279Z,2.65
2023-05-06T16:02:55.530Z,2.50
2023-05-06T16:05:22.594Z,2.10
2023-05-06T16:07:50.004Z,2.63
2023-05-06T16:10:16.929Z,3.40
2023-05-06T16:12:43.977Z,3.22
2023-05-06T16:15:11.443Z,3.42
2023-05-06T16:17:40.578Z,3.65
2023-05-06T16:20:10.563Z,3.10
2023-05-06T16:22:39.841Z,3.80
2023-05-06T16:25:07.760Z,4.50
2023-05-06T16:27:35.483Z,4.82
2023-05-06T16:30:02.408Z,3.97
2023-05-06T16:32:29.400Z,3.20
2023-05-06T16:34:59.394Z,3.08
2023-05-06T16:37:26.632Z,3.72
2023-05-06T16:39:53.549Z,3.97
2023-05-06T16:42:20.571Z,3.38
2023-05-06T16:44:48.059Z,2.55
2023-05-06T16:47:15.469Z,2.90
2023-05-06T16:49:42.737Z,3.95
2023-05-06T16:52:11.266Z,4.03
2023-05-06T16:54:38.312Z,2.90
2023-05-06T16:57:05.226Z,3.00
2023-05-06T16:59:32.262Z,3.10
2023-05-06T17:01:59.263Z,2.90
2023-05-06T17:04:26.645Z,2.65
2023-05-06T17:06:55.141Z,2.97
2023-05-06T17:09:23.501Z,2.75
2023-05-06T17:11:50.615Z,2.92
2023-05-06T17:14:17.628Z,2.92
2023-05-06T17:16:45.392Z,2.80
2023-05-06T17:19:12.475Z,3.05
2023-05-06T17:21:39.752Z,3.28
2023-05-06T17:24:07.230Z,3.90
2023-05-06T17:26:38.689Z,3.90
2023-05-06T17:29:06.171Z,2.80
2023-05-06T17:31:33.130Z,2.55
2023-05-06T17:34:00.721Z,2.88
2023-05-06T17:36:27.949Z,3.17
2023-05-06T17:39:02.310Z,3.17
2023-05-06T17:41:29.272Z,3.10
2023-05-06T17:43:58.126Z,2.42
2023-05-06T17:46:25.303Z,2.90
2023-05-06T17:48:52.528Z,2.83
2023-05-06T17:51:19.569Z,3.20
2023-05-06T17:53:46.525Z,3.10
2023-05-06T17:56:13.535Z,3.13
2023-05-06T17:58:40.482Z,2.88
2023-05-06T18:01:09.155Z,3.05
2023-05-06T18:03:36.334Z,3.10
2023-05-06T18:06:04.206Z,2.90
2023-05-06T18:08:31.161Z,3.05
2023-05-06T18:10:58.132Z,3.13
2023-05-06T18:13:25.610Z,2.67
2023-05-06T18:15:52.588Z,3.05
2023-05-06T18:18:24.015Z,3.05
2023-05-06T18:20:51.087Z,3.42
2023-05-06T18:23:18.068Z,2.92
2023-05-06T18:25:45.442Z,3.22
2023-05-06T18:28:12.754Z,2.90
2023-05-06T18:30:39.768Z,2.78
2023-05-06T18:33:06.729Z,2.83
2023-05-06T18:35:36.598Z,3.03
2023-05-06T18:38:03.668Z,2.80
2023-05-06T18:40:31.121Z,3.10
2023-05-06T18:42:58.243Z,2.95
2023-05-06T18:45:25.350Z,2.65
2023-05-06T18:47:52.395Z,2.90
2023-05-06T18:50:19.557Z,2.85
2023-05-06T18:52:48.105Z,2.90
2023-05-06T18:55:15.011Z,3.47
2023-05-06T18:57:42.012Z,3.08
2023-05-06T19:00:09.660Z,3.63
2023-05-06T19:02:37.895Z,3.13
2023-05-06T19:05:06.320Z,3.28
2023-05-06T19:07:33.300Z,2.90
2023-05-06T19:10:01.641Z,3.22
2023-05-06T19:12:30.164Z,2.85
2023-05-06T19:14:57.106Z,2.83
2023-05-06T19:17:24.128Z,3.35
2023-05-06T19:19:51.250Z,3.80
2023-05-06T19:22:18.294Z,2.83
2023-05-06T19:24:45.340Z,2.70
2023-05-06T19:27:13.659Z,3.10
2023-05-06T19:29:40.688Z,3.10
2023-05-06T19:32:07.630Z,3.10
2023-05-06T19:34:34.609Z,3.10
2023-05-06T19:37:01.521Z,3.25
2023-05-06T19:39:28.597Z,3.22
2023-05-06T19:41:55.751Z,2.90
2023-05-06T19:44:24.203Z,3.22
2023-05-06T19:46:54.306Z,2.85
2023-05-06T19:49:21.438Z,3.47
2023-05-06T19:51:48.380Z,3.35
2023-05-06T19:54:15.385Z,3.13
2023-05-06T19:56:43.553Z,3.20
2023-05-06T19:59:10.489Z,3.17
2023-05-06T20:01:38.835Z,3.17
2023-05-06T20:04:06.327Z,3.38
2023-05-06T20:06:33.396Z,4.00
2023-05-06T20:09:00.322Z,3.13
2023-05-06T20:11:27.227Z,3.15
2023-05-06T20:13:54.278Z,3.45
2023-05-06T20:16:21.287Z,3.05
2023-05-06T20:18:51.544Z,3.17
2023-05-06T20:21:18.473Z,3.08
2023-05-06T20:23:45.618Z,2.95
2023-05-06T20:26:12.535Z,3.20
2023-05-06T20:28:39.540Z,3.30
2023-05-06T20:31:06.940Z,3.55
2023-05-06T20:33:34.188Z,3.38
2023-05-06T20:36:02.509Z,3.35
2023-05-06T20:38:30.940Z,3.10
2023-05-06T20:40:58.784Z,3.78
2023-05-06T20:43:25.890Z,3.85
2023-05-06T20:45:52.956Z,4.00
2023-05-06T20:48:19.948Z,3.13
2023-05-06T20:50:47.111Z,3.88
2023-05-06T20:53:15.609Z,3.47
2023-05-06T20:55:42.588Z,3.33
2023-05-06T20:58:09.513Z,3.55
2023-05-06T21:00:36.416Z,3.22
2023-05-06T21:03:04.801Z,3.42
2023-05-06T21:05:32.451Z,3.42
2023-05-06T21:07:59.363Z,3.50
2023-05-06T21:10:27.688Z,3.63
2023-05-06T21:12:54.707Z,4.00
2023-05-06T21:15:22.014Z,3.70
2023-05-06T21:17:49.223Z,3.65
2023-05-06T21:20:16.606Z,4.10
2023-05-06T21:22:43.597Z,3.75
2023-05-06T21:25:13.091Z,3.78
2023-05-06T21:27:41.687Z,3.67
2023-05-06T21:30:09.679Z,3.63
2023-05-06T21:32:36.633Z,3.90
2023-05-06T21:35:03.924Z,3.75
2023-05-06T21:37:35.704Z,3.40
2023-05-06T21:40:04.461Z,3.67
2023-05-06T21:42:31.517Z,3.80
2023-05-06T21:44:59.774Z,3.70
2023-05-06T21:47:26.968Z,3.80
2023-05-06T21:49:53.983Z,4.00
2023-05-06T21:52:21.030Z,4.53
2023-05-06T21:54:48.291Z,4.13
2023-05-06T21:57:15.436Z,3.92
2023-05-06T21:59:42.586Z,3.72
2023-05-06T22:02:11.017Z,3.80
2023-05-06T22:04:38.088Z,3.67
2023-05-06T22:07:05.241Z,3.78
2023-05-06T22:09:32.139Z,3.90
2023-05-06T22:11:59.071Z,4.00
2023-05-06T22:14:30.208Z,3.67
2023-05-06T22:17:08.030Z,3.75
2023-05-06T22:19:36.435Z,4.53
2023-05-06T22:22:04.246Z,3.80
2023-05-06T22:24:31.397Z,4.20
2023-05-06T22:26:58.411Z,3.80
2023-05-06T22:29:25.716Z,3.90
2023-05-06T22:31:52.760Z,4.47
2023-05-06T22:34:19.802Z,3.83
2023-05-06T22:36:48.090Z,3.55
2023-05-06T22:39:15.102Z,3.88
2023-05-06T22:41:42.073Z,4.13
2023-05-06T22:44:09.037Z,3.67
2023-05-06T22:46:36.182Z,4.25
2023-05-06T22:49:03.506Z,3.58
2023-05-06T22:51:32.164Z,3.60
2023-05-06T22:54:00.906Z,4.32
2023-05-06T22:56:27.867Z,3.90
2023-05-06T22:58:54.891Z,3.53
2023-05-06T23:01:22.845Z,4.10
2023-05-06T23:03:49.942Z,3.63
2023-05-06T23:06:18.101Z,3.72
2023-05-06T23:08:44.991Z,3.60
2023-05-06T23:11:13.305Z,3.70
2023-05-06T23:13:40.535Z,3.90
2023-05-06T23:16:10.160Z,4.05
2023-05-06T23:18:37.340Z,3.85
2023-05-06T23:21:04.530Z,4.30
2023-05-06T23:23:31.922Z,4.22
2023-05-06T23:25:58.974Z,3.78
2023-05-06T23:28:28.031Z,4.53
2023-05-06T23:30:55.046Z,4.55
2023-05-06T23:33:22.326Z,4.50
2023-05-06T23:35:49.326Z,4.60
2023-05-06T23:38:16.313Z,3.95
2023-05-06T23:40:43.271Z,4.38
2023-05-06T23:43:11.359Z,3.97
2023-05-06T23:45:39.808Z,4.63
2023-05-06T23:48:07.328Z,4.65
2023-05-06T23:50:34.497Z,4.68
2023-05-06T23:53:01.459Z,4.45
2023-05-06T23:55:28.849Z,4.80
2023-05-06T23:57:55.962Z,4.88
